INFORMACIÓN METAR y TAF
METAR FOR LEAB
ADDS - METARS form results

(0958 UTC 08 August 2022)
Data provider http://aviationweather.gov/metar/data/
 
METAR text: LEAB 080930Z 14005KT 080V200 CAVOK 30/12 Q1019 NOSIG
Conditions at: LEAB (ALBACETE (CIV/MI, ES) observed 0930 UTC 08 August 2022
Temperature: 30.0°C (86°F)
Dewpoint: 12.0°C (54°F) [RH = 33%]
Pressure (altimeter): 30.09 inches Hg (1019.0 mb)
Winds: from the SE (140 degrees) at 6 MPH (5 knots; 2.6 m/s)
Visibility: 6 or more miles (10+ km)
Ceiling: ceiling and visibility are OK
Clouds: unknown
Weather: no significant weather observed at this time

METAR text: LEAB 080900Z VRB04KT CAVOK 28/14 Q1019 NOSIG
Conditions at: LEAB (ALBACETE (CIV/MI, ES) observed 0900 UTC 08 August 2022
Temperature: 28.0°C (82°F)
Dewpoint: 14.0°C (57°F) [RH = 42%]
Pressure (altimeter): 30.09 inches Hg (1019.0 mb)
Winds: variable direction winds at 5 MPH (4 knots; 2.1 m/s)
Visibility: 6 or more miles (10+ km)
Ceiling: ceiling and visibility are OK
Clouds: unknown
Weather: no significant weather observed at this time

Forecast for: LEAB (ALBACETE (CIV/MI, ES)
Text: TAF LEAB 080500Z 0806/0906 15008KT CAVOK TX36/0815Z TN18/0905Z
Forecast period: 0600 UTC 08 August 2022 to 0600 UTC 09 August 2022
Forecast type: FROM: standard forecast or significant change
Winds: from the SSE (150 degrees) at 9 MPH (8 knots; 4.1 m/s)
Visibility: 6 or more miles (10+ km)
Ceiling: unknown
Clouds: missing
Weather: no significant weather forecast for this period

 MAPA DE AEROPUERTO

 INFORMACIÓN DE PISTA
Pista 09 Longitud 8858 ft Ancho 197 ft
Elevación 2281 ft Umbral desplazado 0 ft Rumbo de pista 87
Pista 27 Longitud 8858 ft Ancho 197 ft
Elevación 2302 ft Umbral desplazado 0 ft Rumbo de pista 267

 FRECUANCIAS DEL AEROPUERTO
Tipo APP Nombre APP Frecuencia 118.725 MHZ
Tipo GND Nombre GND Frecuencia 121.8 MHZ
Tipo TWR Nombre TWR Frecuencia 122.1 MHZ

 RADIO AYUDAS DEL AEROPUERTO
Tipo NDB Nombre Albacete Frecuencia 321 KHZ
Tipo TACAN Nombre Albacete Frecuencia 108000 KHZ
Tipo VOR-DME Nombre Albacete Frecuencia 115800 KHZ



Powered by Virtual Airlines Manager [v2.6.2]